sensor_id;sensor_type;location;lat;lon;timestamp;pressure;altitude;pressure_sealevel;temperature;humidity
30618;BME280;17384;51.214;9.202;2023-11-19T00:00:30;98233.53;;;5.91;100.00
30618;BME280;17384;51.214;9.202;2023-11-19T00:02:56;98228.72;;;5.86;100.00
30618;BME280;17384;51.214;9.202;2023-11-19T00:05:21;98228.69;;;5.79;100.00
30618;BME280;17384;51.214;9.202;2023-11-19T00:07:46;98207.66;;;5.90;100.00
30618;BME280;17384;51.214;9.202;2023-11-19T00:10:14;98213.81;;;5.84;100.00
30618;BME280;17384;51.214;9.202;2023-11-19T00:12:45;98208.69;;;5.89;100.00
30618;BME280;17384;51.214;9.202;2023-11-19T00:15:12;98207.81;;;5.88;100.00
30618;BME280;17384;51.214;9.202;2023-11-19T00:17:39;98194.19;;;5.90;100.00
30618;BME280;17384;51.214;9.202;2023-11-19T00:20:15;98192.97;;;5.92;100.00
30618;BME280;17384;51.214;9.202;2023-11-19T00:22:41;98187.41;;;6.00;100.00
30618;BME280;17384;51.214;9.202;2023-11-19T00:25:08;98181.81;;;6.02;100.00
30618;BME280;17384;51.214;9.202;2023-11-19T00:27:34;98162.53;;;5.92;100.00
30618;BME280;17384;51.214;9.202;2023-11-19T00:29:59;98170.81;;;5.90;100.00
30618;BME280;17384;51.214;9.202;2023-11-19T00:32:24;98173.53;;;6.03;100.00
30618;BME280;17384;51.214;9.202;2023-11-19T00:34:50;98168.09;;;5.90;100.00
30618;BME280;17384;51.214;9.202;2023-11-19T00:37:16;98151.56;;;5.93;100.00
30618;BME280;17384;51.214;9.202;2023-11-19T00:39:42;98134.41;;;6.01;100.00
30618;BME280;17384;51.214;9.202;2023-11-19T00:42:09;98138.53;;;5.97;100.00
30618;BME280;17384;51.214;9.202;2023-11-19T00:44:35;98145.16;;;5.94;100.00
30618;BME280;17384;51.214;9.202;2023-11-19T00:47:01;98147.78;;;5.88;100.00
30618;BME280;17384;51.214;9.202;2023-11-19T00:49:26;98118.72;;;5.76;100.00
30618;BME280;17384;51.214;9.202;2023-11-19T00:51:52;98126.19;;;5.74;100.00
30618;BME280;17384;51.214;9.202;2023-11-19T00:54:17;98122.69;;;5.74;100.00
30618;BME280;17384;51.214;9.202;2023-11-19T00:56:43;98116.66;;;5.72;100.00
30618;BME280;17384;51.214;9.202;2023-11-19T00:59:08;98124.13;;;5.76;100.00
30618;BME280;17384;51.214;9.202;2023-11-19T01:01:34;98109.44;;;5.79;100.00
30618;BME280;17384;51.214;9.202;2023-11-19T01:03:59;98121.22;;;5.78;100.00
30618;BME280;17384;51.214;9.202;2023-11-19T01:06:29;98103.84;;;5.81;100.00
30618;BME280;17384;51.214;9.202;2023-11-19T01:08:55;98111.00;;;6.01;100.00
30618;BME280;17384;51.214;9.202;2023-11-19T01:11:22;98118.25;;;6.01;100.00
30618;BME280;17384;51.214;9.202;2023-11-19T01:13:48;98102.28;;;6.06;100.00
30618;BME280;17384;51.214;9.202;2023-11-19T01:16:14;98100.63;;;6.05;100.00
30618;BME280;17384;51.214;9.202;2023-11-19T01:18:39;98089.66;;;6.06;100.00
30618;BME280;17384;51.214;9.202;2023-11-19T01:21:05;98098.34;;;6.02;100.00
30618;BME280;17384;51.214;9.202;2023-11-19T01:23:31;98096.91;;;6.06;100.00
30618;BME280;17384;51.214;9.202;2023-11-19T01:25:58;98090.69;;;5.99;100.00
30618;BME280;17384;51.214;9.202;2023-11-19T01:28:23;98097.94;;;6.05;100.00
30618;BME280;17384;51.214;9.202;2023-11-19T01:30:50;98074.53;;;6.12;100.00
30618;BME280;17384;51.214;9.202;2023-11-19T01:33:16;98082.19;;;6.02;100.00
30618;BME280;17384;51.214;9.202;2023-11-19T01:35:41;98067.09;;;6.14;100.00
30618;BME280;17384;51.214;9.202;2023-11-19T01:38:07;98066.44;;;6.05;100.00
30618;BME280;17384;51.214;9.202;2023-11-19T01:40:34;98061.94;;;6.19;100.00
30618;BME280;17384;51.214;9.202;2023-11-19T01:42:59;98072.06;;;6.30;100.00
30618;BME280;17384;51.214;9.202;2023-11-19T01:45:29;98064.22;;;6.29;100.00
30618;BME280;17384;51.214;9.202;2023-11-19T01:48:00;98050.97;;;6.27;100.00
30618;BME280;17384;51.214;9.202;2023-11-19T01:50:26;98050.94;;;6.34;100.00
30618;BME280;17384;51.214;9.202;2023-11-19T01:52:53;98055.50;;;6.47;100.00
30618;BME280;17384;51.214;9.202;2023-11-19T01:55:20;98061.13;;;6.52;100.00
30618;BME280;17384;51.214;9.202;2023-11-19T01:57:47;98057.38;;;6.46;100.00
30618;BME280;17384;51.214;9.202;2023-11-19T02:00:14;98037.66;;;6.59;100.00
30618;BME280;17384;51.214;9.202;2023-11-19T02:02:41;98034.34;;;6.63;100.00
30618;BME280;17384;51.214;9.202;2023-11-19T02:05:09;98031.25;;;6.66;100.00
30618;BME280;17384;51.214;9.202;2023-11-19T02:07:34;98033.72;;;6.68;100.00
30618;BME280;17384;51.214;9.202;2023-11-19T02:10:00;98035.59;;;6.74;100.00
30618;BME280;17384;51.214;9.202;2023-11-19T02:12:28;98067.09;;;6.80;100.00
30618;BME280;17384;51.214;9.202;2023-11-19T02:14:54;98052.38;;;6.76;100.00
30618;BME280;17384;51.214;9.202;2023-11-19T02:17:30;98054.66;;;6.79;100.00
30618;BME280;17384;51.214;9.202;2023-11-19T02:20:00;98064.59;;;6.85;100.00
30618;BME280;17384;51.214;9.202;2023-11-19T02:22:26;98056.69;;;6.97;100.00
30618;BME280;17384;51.214;9.202;2023-11-19T02:24:55;98026.41;;;6.88;100.00
30618;BME280;17384;51.214;9.202;2023-11-19T02:30:00;98036.78;;;6.91;100.00
30618;BME280;17384;51.214;9.202;2023-11-19T02:32:29;98031.81;;;6.88;100.00
30618;BME280;17384;51.214;9.202;2023-11-19T02:34:56;98039.91;;;6.88;100.00
30618;BME280;17384;51.214;9.202;2023-11-19T02:37:21;98017.69;;;6.99;100.00
30618;BME280;17384;51.214;9.202;2023-11-19T02:39:46;98015.19;;;7.04;100.00
30618;BME280;17384;51.214;9.202;2023-11-19T02:42:12;98003.97;;;7.07;100.00
30618;BME280;17384;51.214;9.202;2023-11-19T02:44:38;98015.19;;;7.04;100.00
30618;BME280;17384;51.214;9.202;2023-11-19T02:47:05;98002.75;;;7.03;100.00
30618;BME280;17384;51.214;9.202;2023-11-19T02:49:33;98015.97;;;7.11;100.00
30618;BME280;17384;51.214;9.202;2023-11-19T02:51:58;97998.53;;;7.14;100.00
30618;BME280;17384;51.214;9.202;2023-11-19T02:54:24;97998.75;;;7.12;100.00
30618;BME280;17384;51.214;9.202;2023-11-19T02:56:52;98012.03;;;7.14;100.00
30618;BME280;17384;51.214;9.202;2023-11-19T02:59:21;98004.56;;;7.16;100.00
30618;BME280;17384;51.214;9.202;2023-11-19T03:01:53;97994.81;;;7.15;100.00
30618;BME280;17384;51.214;9.202;2023-11-19T03:04:19;97996.88;;;7.20;100.00
30618;BME280;17384;51.214;9.202;2023-11-19T03:06:48;97992.50;;;7.19;100.00
30618;BME280;17384;51.214;9.202;2023-11-19T03:09:14;97999.38;;;7.14;100.00
30618;BME280;17384;51.214;9.202;2023-11-19T03:11:39;97985.06;;;7.14;100.00
30618;BME280;17384;51.214;9.202;2023-11-19T03:14:05;97984.84;;;7.16;100.00
30618;BME280;17384;51.214;9.202;2023-11-19T03:16:30;97987.75;;;7.14;100.00
30618;BME280;17384;51.214;9.202;2023-11-19T03:18:56;97996.06;;;7.12;100.00
30618;BME280;17384;51.214;9.202;2023-11-19T03:21:30;97995.63;;;7.16;100.00
30618;BME280;17384;51.214;9.202;2023-11-19T03:23:57;97994.38;;;7.18;100.00
30618;BME280;17384;51.214;9.202;2023-11-19T03:26:27;97986.06;;;7.20;100.00
30618;BME280;17384;51.214;9.202;2023-11-19T03:28:53;97987.34;;;7.17;100.00
30618;BME280;17384;51.214;9.202;2023-11-19T03:31:19;97993.31;;;7.26;100.00
30618;BME280;17384;51.214;9.202;2023-11-19T03:33:45;97987.72;;;7.27;100.00
30618;BME280;17384;51.214;9.202;2023-11-19T03:36:11;97980.06;;;7.18;100.00
30618;BME280;17384;51.214;9.202;2023-11-19T03:38:38;97992.28;;;7.27;100.00
30618;BME280;17384;51.214;9.202;2023-11-19T03:41:13;97994.75;;;7.35;100.00
30618;BME280;17384;51.214;9.202;2023-11-19T03:43:39;97983.34;;;7.26;100.00
30618;BME280;17384;51.214;9.202;2023-11-19T03:46:23;97988.94;;;7.31;100.00
30618;BME280;17384;51.214;9.202;2023-11-19T03:48:49;97971.50;;;7.34;100.00
30618;BME280;17384;51.214;9.202;2023-11-19T03:51:15;97968.59;;;7.35;100.00
30618;BME280;17384;51.214;9.202;2023-11-19T03:53:42;97965.50;;;7.32;100.00
30618;BME280;17384;51.214;9.202;2023-11-19T03:56:08;97965.91;;;7.35;100.00
30618;BME280;17384;51.214;9.202;2023-11-19T03:58:35;97938.47;;;7.38;100.00
30618;BME280;17384;51.214;9.202;2023-11-19T04:01:01;97940.94;;;7.40;100.00
30618;BME280;17384;51.214;9.202;2023-11-19T04:03:27;97948.16;;;7.46;100.00
30618;BME280;17384;51.214;9.202;2023-11-19T04:05:53;97929.19;;;7.28;100.00
30618;BME280;17384;51.214;9.202;2023-11-19T04:08:18;97918.16;;;7.36;100.00
30618;BME280;17384;51.214;9.202;2023-11-19T04:10:44;97941.84;;;7.27;100.00
30618;BME280;17384;51.214;9.202;2023-11-19T04:13:10;97943.97;;;7.19;100.00
30618;BME280;17384;51.214;9.202;2023-11-19T04:15:35;97941.25;;;7.25;100.00
30618;BME280;17384;51.214;9.202;2023-11-19T04:18:00;97937.28;;;7.28;100.00
30618;BME280;17384;51.214;9.202;2023-11-19T04:20:26;97939.53;;;7.37;100.00
30618;BME280;17384;51.214;9.202;2023-11-19T04:22:51;97933.66;;;7.40;100.00
30618;BME280;17384;51.214;9.202;2023-11-19T04:25:17;97936.81;;;7.37;100.00
30618;BME280;17384;51.214;9.202;2023-11-19T04:27:44;97934.13;;;7.37;100.00
30618;BME280;17384;51.214;9.202;2023-11-19T04:30:10;97926.59;;;7.46;100.00
30618;BME280;17384;51.214;9.202;2023-11-19T04:32:36;97934.69;;;7.46;100.00
30618;BME280;17384;51.214;9.202;2023-11-19T04:35:02;97926.34;;;7.54;100.00
30618;BME280;17384;51.214;9.202;2023-11-19T04:37:28;97927.16;;;7.55;100.00
30618;BME280;17384;51.214;9.202;2023-11-19T04:39:53;97928.38;;;7.59;100.00
30618;BME280;17384;51.214;9.202;2023-11-19T04:42:18;97917.97;;;7.62;100.00
30618;BME280;17384;51.214;9.202;2023-11-19T04:44:45;97912.81;;;7.61;100.00
30618;BME280;17384;51.214;9.202;2023-11-19T04:47:10;97918.75;;;7.69;100.00
30618;BME280;17384;51.214;9.202;2023-11-19T04:49:42;97917.69;;;7.70;100.00
30618;BME280;17384;51.214;9.202;2023-11-19T04:52:08;97906.91;;;7.70;100.00
30618;BME280;17384;51.214;9.202;2023-11-19T04:54:33;97912.25;;;7.77;100.00
30618;BME280;17384;51.214;9.202;2023-11-19T04:57:00;97916.81;;;7.76;100.00
30618;BME280;17384;51.214;9.202;2023-11-19T04:59:25;97924.81;;;7.65;100.00
30618;BME280;17384;51.214;9.202;2023-11-19T05:01:52;97918.59;;;7.64;100.00
30618;BME280;17384;51.214;9.202;2023-11-19T05:04:18;97915.28;;;7.62;100.00
30618;BME280;17384;51.214;9.202;2023-11-19T05:06:44;97908.50;;;7.78;100.00
30618;BME280;17384;51.214;9.202;2023-11-19T05:09:09;97900.66;;;7.70;100.00
30618;BME280;17384;51.214;9.202;2023-11-19T05:11:37;97895.94;;;7.65;100.00
30618;BME280;17384;51.214;9.202;2023-11-19T05:14:04;97905.25;;;7.69;100.00
30618;BME280;17384;51.214;9.202;2023-11-19T05:16:30;97903.16;;;7.71;100.00
30618;BME280;17384;51.214;9.202;2023-11-19T05:18:56;97885.16;;;7.65;100.00
30618;BME280;17384;51.214;9.202;2023-11-19T05:21:21;97894.16;;;7.53;100.00
30618;BME280;17384;51.214;9.202;2023-11-19T05:23:47;97887.47;;;7.62;100.00
30618;BME280;17384;51.214;9.202;2023-11-19T05:26:19;97894.94;;;7.60;100.00
30618;BME280;17384;51.214;9.202;2023-11-19T05:28:45;97904.88;;;7.66;100.00
30618;BME280;17384;51.214;9.202;2023-11-19T05:31:11;97893.72;;;7.56;100.00
30618;BME280;17384;51.214;9.202;2023-11-19T05:33:36;97889.47;;;7.66;100.00
30618;BME280;17384;51.214;9.202;2023-11-19T05:36:02;97900.34;;;7.60;100.00
30618;BME280;17384;51.214;9.202;2023-11-19T05:38:30;97901.56;;;7.64;100.00
30618;BME280;17384;51.214;9.202;2023-11-19T05:40:56;97905.97;;;7.58;100.00
30618;BME280;17384;51.214;9.202;2023-11-19T05:43:22;97884.63;;;7.50;100.00
30618;BME280;17384;51.214;9.202;2023-11-19T05:45:47;97890.63;;;7.52;100.00
30618;BME280;17384;51.214;9.202;2023-11-19T05:48:13;97894.56;;;7.56;100.00
30618;BME280;17384;51.214;9.202;2023-11-19T05:50:39;97894.13;;;7.59;100.00
30618;BME280;17384;51.214;9.202;2023-11-19T05:53:05;97889.13;;;7.63;100.00
30618;BME280;17384;51.214;9.202;2023-11-19T05:55:34;97883.59;;;7.51;100.00
30618;BME280;17384;51.214;9.202;2023-11-19T05:58:01;97881.38;;;7.66;100.00
30618;BME280;17384;51.214;9.202;2023-11-19T06:00:27;97874.91;;;7.74;100.00
30618;BME280;17384;51.214;9.202;2023-11-19T06:02:53;97900.59;;;7.83;100.00
30618;BME280;17384;51.214;9.202;2023-11-19T06:05:18;97900.59;;;7.83;100.00
30618;BME280;17384;51.214;9.202;2023-11-19T06:07:43;97895.13;;;7.90;100.00
30618;BME280;17384;51.214;9.202;2023-11-19T06:10:09;97900.66;;;7.70;100.00
30618;BME280;17384;51.214;9.202;2023-11-19T06:12:36;97916.47;;;7.66;100.00
30618;BME280;17384;51.214;9.202;2023-11-19T06:15:05;97923.63;;;7.54;100.00
30618;BME280;17384;51.214;9.202;2023-11-19T06:17:31;97915.13;;;7.51;100.00
30618;BME280;17384;51.214;9.202;2023-11-19T06:19:56;97916.06;;;7.38;100.00
30618;BME280;17384;51.214;9.202;2023-11-19T06:22:22;97906.66;;;7.47;100.00
30618;BME280;17384;51.214;9.202;2023-11-19T06:24:47;97904.81;;;7.41;100.00
30618;BME280;17384;51.214;9.202;2023-11-19T06:27:13;97906.47;;;7.42;100.00
30618;BME280;17384;51.214;9.202;2023-11-19T06:29:38;97904.81;;;7.41;100.00
30618;BME280;17384;51.214;9.202;2023-11-19T06:32:06;97916.22;;;7.43;100.00
30618;BME280;17384;51.214;9.202;2023-11-19T06:34:31;97918.78;;;7.38;100.00
30618;BME280;17384;51.214;9.202;2023-11-19T06:36:58;97893.41;;;7.39;100.00
30618;BME280;17384;51.214;9.202;2023-11-19T06:39:23;97910.31;;;7.28;100.00
30618;BME280;17384;51.214;9.202;2023-11-19T06:41:49;97908.88;;;7.25;100.00
30618;BME280;17384;51.214;9.202;2023-11-19T06:44:14;97907.03;;;7.19;100.00
30618;BME280;17384;51.214;9.202;2023-11-19T06:46:40;97920.13;;;7.16;100.00
30618;BME280;17384;51.214;9.202;2023-11-19T06:49:05;97902.03;;;7.23;100.00
30618;BME280;17384;51.214;9.202;2023-11-19T06:51:33;97906.19;;;7.19;100.00
30618;BME280;17384;51.214;9.202;2023-11-19T06:53:59;97926.00;;;6.99;100.00
30618;BME280;17384;51.214;9.202;2023-11-19T06:56:25;97937.38;;;7.08;100.00
30618;BME280;17384;51.214;9.202;2023-11-19T06:58:51;97924.16;;;6.93;100.00
30618;BME280;17384;51.214;9.202;2023-11-19T07:01:17;97944.13;;;6.79;100.00
30618;BME280;17384;51.214;9.202;2023-11-19T07:03:47;97943.19;;;6.40;100.00
30618;BME280;17384;51.214;9.202;2023-11-19T07:06:12;97930.75;;;6.39;100.00
30618;BME280;17384;51.214;9.202;2023-11-19T07:08:40;97939.03;;;6.38;100.00
30618;BME280;17384;51.214;9.202;2023-11-19T07:11:06;97944.84;;;6.41;100.00
30618;BME280;17384;51.214;9.202;2023-11-19T07:13:32;97949.63;;;6.39;100.00
30618;BME280;17384;51.214;9.202;2023-11-19T07:15:57;97946.50;;;6.36;100.00
30618;BME280;17384;51.214;9.202;2023-11-19T07:18:23;97938.63;;;6.34;100.00
30618;BME280;17384;51.214;9.202;2023-11-19T07:20:49;97929.91;;;6.45;100.00
30618;BME280;17384;51.214;9.202;2023-11-19T07:23:14;97919.28;;;6.70;100.00
30618;BME280;17384;51.214;9.202;2023-11-19T07:25:43;97918.38;;;6.90;100.00
30618;BME280;17384;51.214;9.202;2023-11-19T07:28:12;97913.56;;;6.98;100.00
30618;BME280;17384;51.214;9.202;2023-11-19T07:30:38;97927.72;;;6.87;100.00
30618;BME280;17384;51.214;9.202;2023-11-19T07:33:03;97928.59;;;6.81;100.00
30618;BME280;17384;51.214;9.202;2023-11-19T07:35:32;97929.97;;;6.90;100.00
30618;BME280;17384;51.214;9.202;2023-11-19T07:37:57;97928.72;;;7.37;100.00
30618;BME280;17384;51.214;9.202;2023-11-19T07:40:23;97943.56;;;7.85;100.00
30618;BME280;17384;51.214;9.202;2023-11-19T07:42:49;97948.75;;;8.11;100.00
30618;BME280;17384;51.214;9.202;2023-11-19T07:45:15;97940.78;;;8.47;100.00
30618;BME280;17384;51.214;9.202;2023-11-19T07:47:41;97948.16;;;8.95;100.00
30618;BME280;17384;51.214;9.202;2023-11-19T07:50:06;97941.66;;;9.14;100.00
30618;BME280;17384;51.214;9.202;2023-11-19T07:52:32;97937.56;;;9.42;100.00
30618;BME280;17384;51.214;9.202;2023-11-19T07:54:58;97952.69;;;9.61;100.00
30618;BME280;17384;51.214;9.202;2023-11-19T07:57:23;97960.16;;;10.19;100.00
30618;BME280;17384;51.214;9.202;2023-11-19T07:59:55;97957.13;;;10.74;100.00
30618;BME280;17384;51.214;9.202;2023-11-19T08:02:21;97953.06;;;11.11;100.00
30618;BME280;17384;51.214;9.202;2023-11-19T08:04:47;97949.25;;;11.52;97.95
30618;BME280;17384;51.214;9.202;2023-11-19T08:07:15;97953.38;;;11.55;96.16
30618;BME280;17384;51.214;9.202;2023-11-19T08:09:41;97959.63;;;11.56;94.18
30618;BME280;17384;51.214;9.202;2023-11-19T08:12:07;97954.47;;;11.82;91.45
30618;BME280;17384;51.214;9.202;2023-11-19T08:14:34;97964.47;;;11.94;90.48
30618;BME280;17384;51.214;9.202;2023-11-19T08:16:59;97969.84;;;12.22;89.60
30618;BME280;17384;51.214;9.202;2023-11-19T08:19:25;97972.56;;;12.39;88.44
30618;BME280;17384;51.214;9.202;2023-11-19T08:21:50;97982.94;;;12.59;87.69
30618;BME280;17384;51.214;9.202;2023-11-19T08:24:16;97958.44;;;12.59;83.91
30618;BME280;17384;51.214;9.202;2023-11-19T08:26:41;97964.56;;;12.49;84.57
30618;BME280;17384;51.214;9.202;2023-11-19T08:29:07;97972.25;;;12.52;84.19
30618;BME280;17384;51.214;9.202;2023-11-19T08:31:33;97978.41;;;12.64;83.57
30618;BME280;17384;51.214;9.202;2023-11-19T08:33:58;97988.22;;;12.82;82.91
30618;BME280;17384;51.214;9.202;2023-11-19T08:36:23;97981.38;;;12.79;82.25
30618;BME280;17384;51.214;9.202;2023-11-19T08:38:49;97975.53;;;13.09;80.35
30618;BME280;17384;51.214;9.202;2023-11-19T08:41:15;97996.53;;;13.14;81.03
30618;BME280;17384;51.214;9.202;2023-11-19T08:43:43;97996.22;;;13.27;79.79
30618;BME280;17384;51.214;9.202;2023-11-19T08:46:11;98004.38;;;13.49;77.55
30618;BME280;17384;51.214;9.202;2023-11-19T08:48:37;98008.19;;;13.48;76.97
30618;BME280;17384;51.214;9.202;2023-11-19T08:51:03;98001.09;;;13.47;75.17
30618;BME280;17384;51.214;9.202;2023-11-19T08:53:29;98001.47;;;13.34;75.86
30618;BME280;17384;51.214;9.202;2023-11-19T08:55:55;98011.47;;;13.50;76.63
30618;BME280;17384;51.214;9.202;2023-11-19T08:58:21;98006.84;;;13.50;75.12
30618;BME280;17384;51.214;9.202;2023-11-19T09:00:47;98022.94;;;13.52;74.52
30618;BME280;17384;51.214;9.202;2023-11-19T09:03:12;98029.56;;;13.56;73.97
30618;BME280;17384;51.214;9.202;2023-11-19T09:05:41;98033.59;;;13.75;73.25
30618;BME280;17384;51.214;9.202;2023-11-19T09:08:07;98027.06;;;13.54;72.79
30618;BME280;17384;51.214;9.202;2023-11-19T09:10:32;98020.97;;;13.47;73.29
30618;BME280;17384;51.214;9.202;2023-11-19T09:12:58;98047.88;;;13.22;72.75
30618;BME280;17384;51.214;9.202;2023-11-19T09:15:23;98036.25;;;13.70;73.44
30618;BME280;17384;51.214;9.202;2023-11-19T09:17:49;98037.25;;;12.87;74.11
30618;BME280;17384;51.214;9.202;2023-11-19T09:20:15;98030.34;;;12.63;75.81
30618;BME280;17384;51.214;9.202;2023-11-19T09:22:42;98038.41;;;12.24;76.20
30618;BME280;17384;51.214;9.202;2023-11-19T09:25:08;98038.50;;;12.46;76.62
30618;BME280;17384;51.214;9.202;2023-11-19T09:27:35;98038.28;;;12.47;77.58
30618;BME280;17384;51.214;9.202;2023-11-19T09:30:00;98032.19;;;12.12;76.88
30618;BME280;17384;51.214;9.202;2023-11-19T09:32:26;98028.69;;;12.45;76.09
30618;BME280;17384;51.214;9.202;2023-11-19T09:34:51;98033.16;;;12.68;75.32
30618;BME280;17384;51.214;9.202;2023-11-19T09:37:17;98050.00;;;12.81;75.82
30618;BME280;17384;51.214;9.202;2023-11-19T09:39:42;98050.31;;;13.40;73.44
30618;BME280;17384;51.214;9.202;2023-11-19T09:42:12;98020.88;;;13.59;73.38
30618;BME280;17384;51.214;9.202;2023-11-19T09:44:40;98043.03;;;13.89;72.30
30618;BME280;17384;51.214;9.202;2023-11-19T09:47:07;98029.19;;;14.45;70.75
30618;BME280;17384;51.214;9.202;2023-11-19T09:49:35;98046.50;;;14.07;71.21
30618;BME280;17384;51.214;9.202;2023-11-19T09:52:01;98059.94;;;14.13;71.30
30618;BME280;17384;51.214;9.202;2023-11-19T09:54:27;98042.47;;;14.68;69.29
30618;BME280;17384;51.214;9.202;2023-11-19T09:56:52;98045.16;;;14.09;71.20
30618;BME280;17384;51.214;9.202;2023-11-19T09:59:18;98045.47;;;14.40;70.07
30618;BME280;17384;51.214;9.202;2023-11-19T10:01:45;98044.22;;;14.47;69.66
30618;BME280;17384;51.214;9.202;2023-11-19T10:04:12;98054.84;;;14.76;68.74
30618;BME280;17384;51.214;9.202;2023-11-19T10:06:42;98033.72;;;14.66;70.09
30618;BME280;17384;51.214;9.202;2023-11-19T10:09:09;98039.84;;;14.46;70.03
30618;BME280;17384;51.214;9.202;2023-11-19T10:11:34;98042.03;;;14.81;69.48
30618;BME280;17384;51.214;9.202;2023-11-19T10:14:00;98034.28;;;14.68;69.54
30618;BME280;17384;51.214;9.202;2023-11-19T10:16:29;98023.63;;;15.04;69.71
30618;BME280;17384;51.214;9.202;2023-11-19T10:18:59;98039.22;;;15.08;68.38
30618;BME280;17384;51.214;9.202;2023-11-19T10:21:24;98039.44;;;15.44;66.86
30618;BME280;17384;51.214;9.202;2023-11-19T10:23:57;98040.81;;;15.46;67.72
30618;BME280;17384;51.214;9.202;2023-11-19T10:26:25;98047.00;;;15.79;65.68
30618;BME280;17384;51.214;9.202;2023-11-19T10:28:52;98045.81;;;15.60;65.40
30618;BME280;17384;51.214;9.202;2023-11-19T10:31:19;98035.69;;;14.71;67.90
30618;BME280;17384;51.214;9.202;2023-11-19T10:33:46;98027.97;;;14.63;69.43
30618;BME280;17384;51.214;9.202;2023-11-19T10:36:13;98027.66;;;14.05;70.93
30618;BME280;17384;51.214;9.202;2023-11-19T10:38:40;98015.66;;;14.33;70.31
30618;BME280;17384;51.214;9.202;2023-11-19T10:41:06;98031.28;;;15.02;69.73
30618;BME280;17384;51.214;9.202;2023-11-19T10:43:42;98026.38;;;15.04;68.00
30618;BME280;17384;51.214;9.202;2023-11-19T10:46:10;98024.69;;;15.50;67.21
30618;BME280;17384;51.214;9.202;2023-11-19T10:48:38;98036.84;;;15.22;66.40
30618;BME280;17384;51.214;9.202;2023-11-19T10:51:05;98020.47;;;14.48;68.48
30618;BME280;17384;51.214;9.202;2023-11-19T10:53:37;98026.31;;;13.81;71.02
30618;BME280;17384;51.214;9.202;2023-11-19T10:56:06;98021.63;;;13.54;71.09
30618;BME280;17384;51.214;9.202;2023-11-19T10:58:36;98026.63;;;13.41;72.20
30618;BME280;17384;51.214;9.202;2023-11-19T11:01:11;98030.13;;;13.36;72.26
30618;BME280;17384;51.214;9.202;2023-11-19T11:03:42;98021.88;;;13.14;72.26
30618;BME280;17384;51.214;9.202;2023-11-19T11:06:12;98013.38;;;12.72;74.37
30618;BME280;17384;51.214;9.202;2023-11-19T11:08:39;98016.34;;;12.71;73.34
30618;BME280;17384;51.214;9.202;2023-11-19T11:11:05;98006.13;;;12.44;74.66
30618;BME280;17384;51.214;9.202;2023-11-19T11:13:31;98014.59;;;12.31;74.60
30618;BME280;17384;51.214;9.202;2023-11-19T11:16:04;98016.56;;;12.19;74.93
30618;BME280;17384;51.214;9.202;2023-11-19T11:18:33;98007.25;;;12.15;76.04
30618;BME280;17384;51.214;9.202;2023-11-19T11:21:07;98008.53;;;11.96;76.42
30618;BME280;17384;51.214;9.202;2023-11-19T11:26:28;98022.72;;;11.98;77.37
30618;BME280;17384;51.214;9.202;2023-11-19T11:32:22;98016.09;;;11.94;77.73
30618;BME280;17384;51.214;9.202;2023-11-19T11:37:37;98034.81;;;12.07;76.55
30618;BME280;17384;51.214;9.202;2023-11-19T11:40:05;98028.16;;;12.14;75.70
30618;BME280;17384;51.214;9.202;2023-11-19T11:42:38;98022.03;;;12.52;75.34
30618;BME280;17384;51.214;9.202;2023-11-19T11:45:06;98017.97;;;12.72;73.87
30618;BME280;17384;51.214;9.202;2023-11-19T11:50:17;98016.16;;;12.77;72.29
30618;BME280;17384;51.214;9.202;2023-11-19T11:57:56;98021.66;;;12.32;74.96
30618;BME280;17384;51.214;9.202;2023-11-19T12:00:32;98014.84;;;12.30;75.58
30618;BME280;17384;51.214;9.202;2023-11-19T12:03:02;98022.72;;;12.14;76.56
30618;BME280;17384;51.214;9.202;2023-11-19T12:05:29;98030.06;;;11.85;76.66
30618;BME280;17384;51.214;9.202;2023-11-19T12:08:06;98020.03;;;11.86;74.83
30618;BME280;17384;51.214;9.202;2023-11-19T12:10:52;98021.13;;;11.73;75.57
30618;BME280;17384;51.214;9.202;2023-11-19T12:13:53;98020.78;;;11.70;75.94
30618;BME280;17384;51.214;9.202;2023-11-19T12:16:21;98026.78;;;11.83;75.48
30618;BME280;17384;51.214;9.202;2023-11-19T12:18:47;98015.31;;;11.81;74.90
30618;BME280;17384;51.214;9.202;2023-11-19T12:21:30;97999.50;;;11.78;76.63
30618;BME280;17384;51.214;9.202;2023-11-19T12:23:58;98014.88;;;11.73;74.90
30618;BME280;17384;51.214;9.202;2023-11-19T12:26:35;98019.72;;;11.71;74.38
30618;BME280;17384;51.214;9.202;2023-11-19T12:29:01;98027.31;;;11.57;76.68
30618;BME280;17384;51.214;9.202;2023-11-19T12:31:29;98013.56;;;11.75;77.33
30618;BME280;17384;51.214;9.202;2023-11-19T12:33:54;98012.56;;;11.93;74.89
30618;BME280;17384;51.214;9.202;2023-11-19T12:36:20;97998.34;;;12.03;75.66
30618;BME280;17384;51.214;9.202;2023-11-19T12:38:46;98015.19;;;11.88;76.32
30618;BME280;17384;51.214;9.202;2023-11-19T12:41:11;98016.16;;;11.70;75.60
30618;BME280;17384;51.214;9.202;2023-11-19T12:43:38;97999.06;;;11.58;77.12
30618;BME280;17384;51.214;9.202;2023-11-19T12:46:23;98008.81;;;11.42;77.88
30618;BME280;17384;51.214;9.202;2023-11-19T12:48:49;98003.88;;;11.39;78.45
30618;BME280;17384;51.214;9.202;2023-11-19T12:51:15;98002.09;;;11.45;78.44
30618;BME280;17384;51.214;9.202;2023-11-19T12:53:51;97992.03;;;11.45;78.19
30618;BME280;17384;51.214;9.202;2023-11-19T12:56:23;97993.53;;;11.53;78.51
30618;BME280;17384;51.214;9.202;2023-11-19T12:58:49;97995.44;;;11.93;77.49
30618;BME280;17384;51.214;9.202;2023-11-19T13:01:17;97997.69;;;12.12;76.89
30618;BME280;17384;51.214;9.202;2023-11-19T13:03:43;97991.75;;;11.99;77.74
30618;BME280;17384;51.214;9.202;2023-11-19T13:06:10;97991.53;;;11.89;77.59
30618;BME280;17384;51.214;9.202;2023-11-19T13:08:41;97994.13;;;11.95;77.24
30618;BME280;17384;51.214;9.202;2023-11-19T13:11:07;97992.41;;;11.77;77.56
30618;BME280;17384;51.214;9.202;2023-11-19T13:13:57;97999.53;;;11.67;77.93
30618;BME280;17384;51.214;9.202;2023-11-19T13:16:25;98000.25;;;11.62;76.80
30618;BME280;17384;51.214;9.202;2023-11-19T13:18:51;97987.97;;;11.60;77.14